Time;durP1;ratioP1;P1;durP2;ratioP2;P2;SDS_P1;SDS_P2;PMS_P1;PMS_P2;Temp;Humidity;BMP_temperature;BMP_pressure;BME280_temperature;BME280_humidity;BME280_pressure;Samples;Min_cycle;Max_cycle;Signal;HPM_P1;HPM_P2
2023/10/31 00:02:06;;;;;;;0.17;0.15;;;;;;;21.58;100.00;99264.03;10280357;28;20047;-84
2023/10/31 00:07:08;;;;;;;0.25;0.25;;;;;;;22.62;100.00;99264.34;10287444;28;20054;-85
2023/10/31 00:12:09;;;;;;;0.50;0.38;;;;;;;22.42;100.00;99266.19;10265440;28;20058;-84
2023/10/31 00:17:11;;;;;;;1.65;0.93;;;;;;;23.19;100.00;99263.25;10269649;28;20047;-84
2023/10/31 00:22:12;;;;;;;0.25;0.25;;;;;;;22.91;100.00;99267.25;10285298;28;20603;-83
2023/10/31 00:27:14;;;;;;;0.60;0.57;;;;;;;23.50;100.00;99272.09;10282494;28;20120;-83
2023/10/31 00:32:16;;;;;;;0.85;0.50;;;;;;;22.06;100.00;99293.25;10267752;28;20051;-85
2023/10/31 00:37:18;;;;;;;1.65;0.57;;;;;;;20.82;100.00;99318.81;10263327;28;20047;-84
2023/10/31 00:42:20;;;;;;;0.10;0.10;;;;;;;19.97;100.00;99344.78;10268597;28;20055;-84
2023/10/31 00:47:21;;;;;;;0.00;0.00;;;;;;;19.77;100.00;99355.09;10287265;28;20038;-85
2023/10/31 00:52:24;;;;;;;0.43;0.22;;;;;;;19.57;100.00;99380.16;10285218;28;20053;-84
2023/10/31 00:57:26;;;;;;;0.10;0.00;;;;;;;19.08;100.00;99405.38;10287547;28;20054;-84
2023/10/31 01:02:27;;;;;;;0.00;0.00;;;;;;;19.77;100.00;99420.44;10270175;28;20046;-85
2023/10/31 01:07:29;;;;;;;0.00;0.00;;;;;;;19.42;100.00;99432.94;10266572;28;20091;-84
2023/10/31 01:12:32;;;;;;;0.00;0.00;;;;;;;19.58;100.00;99452.41;10285919;28;20058;-83
2023/10/31 01:17:33;;;;;;;0.00;0.00;;;;;;;19.49;100.00;99456.19;10267054;28;20051;-84
2023/10/31 01:22:35;;;;;;;0.00;0.00;;;;;;;19.55;100.00;99469.94;10274649;28;20070;-84
2023/10/31 01:27:37;;;;;;;0.03;0.03;;;;;;;19.29;100.00;99485.59;10280844;28;20047;-83
2023/10/31 01:32:38;;;;;;;0.00;0.00;;;;;;;18.89;100.00;99494.66;10281596;28;20057;-83
2023/10/31 01:37:40;;;;;;;0.00;0.00;;;;;;;19.23;100.00;99501.47;10268633;28;20042;-83
2023/10/31 01:42:43;;;;;;;0.05;0.05;;;;;;;19.73;100.00;99515.50;10284792;28;20506;-83
2023/10/31 01:47:48;;;;;;;0.10;0.10;;;;;;;20.01;100.00;99525.00;10283395;28;20062;-84
2023/10/31 01:52:51;;;;;;;0.32;0.20;;;;;;;19.66;100.00;99538.34;10280775;28;20157;-83
2023/10/31 01:57:53;;;;;;;0.00;0.00;;;;;;;19.81;100.00;99539.59;10281968;28;20579;-82
2023/10/31 02:02:55;;;;;;;0.30;0.15;;;;;;;19.40;100.00;99540.06;10283634;28;20051;-83
2023/10/31 02:07:57;;;;;;;0.00;0.00;;;;;;;19.15;100.00;99547.84;10277509;28;20068;-84
2023/10/31 02:12:58;;;;;;;0.40;0.40;;;;;;;19.42;100.00;99548.72;10285174;28;20130;-84
2023/10/31 02:18:00;;;;;;;0.20;0.17;;;;;;;19.57;100.00;99557.81;10278235;28;20047;-84
2023/10/31 02:23:03;;;;;;;0.38;0.30;;;;;;;19.10;100.00;99557.59;10263155;28;20042;-83
2023/10/31 02:28:04;;;;;;;0.70;0.57;;;;;;;19.56;100.00;99561.31;10283362;28;20122;-84
2023/10/31 02:33:06;;;;;;;1.95;0.70;;;;;;;20.28;100.00;99565.88;10284902;28;20050;-83
2023/10/31 02:38:07;;;;;;;2.03;1.05;;;;;;;19.51;100.00;99578.91;10279622;28;20437;-85
2023/10/31 02:43:09;;;;;;;2.80;0.73;;;;;;;20.18;100.00;99572.34;10289525;28;20518;-83
2023/10/31 02:48:11;;;;;;;0.73;0.30;;;;;;;19.76;100.00;99578.94;10291542;28;20046;-83
2023/10/31 02:53:13;;;;;;;1.42;1.10;;;;;;;19.53;100.00;99587.56;10282468;28;20050;-83
2023/10/31 02:58:17;;;;;;;0.98;0.68;;;;;;;19.66;100.00;99585.38;10288599;28;20093;-83
2023/10/31 03:03:18;;;;;;;3.47;1.00;;;;;;;20.02;100.00;99586.84;10286402;28;20094;-83
2023/10/31 03:08:20;;;;;;;1.90;0.77;;;;;;;19.62;100.00;99597.69;10257029;28;20046;-84
2023/10/31 03:13:23;;;;;;;2.78;0.75;;;;;;;20.18;100.00;99593.25;10292107;28;20050;-84
2023/10/31 03:18:24;;;;;;;1.75;1.00;;;;;;;20.67;100.00;99600.25;10291571;28;20038;-83
2023/10/31 03:23:26;;;;;;;0.55;0.38;;;;;;;20.36;100.00;99596.16;10290888;28;20043;-84
2023/10/31 03:28:28;;;;;;;0.35;0.35;;;;;;;20.72;100.00;99590.47;10287520;28;20552;-84
2023/10/31 03:33:30;;;;;;;0.63;0.45;;;;;;;19.93;100.00;99603.72;10290825;28;20058;-83
2023/10/31 03:38:32;;;;;;;0.55;0.43;;;;;;;20.28;100.00;99596.41;10293991;28;20046;-84
2023/10/31 03:43:34;;;;;;;0.20;0.20;;;;;;;20.22;100.00;99597.47;10282992;28;20080;-83
2023/10/31 03:48:35;;;;;;;1.65;0.63;;;;;;;20.55;100.00;99599.78;10289545;28;20050;-82
2023/10/31 03:53:37;;;;;;;0.90;0.90;;;;;;;20.14;100.00;99609.97;10289285;28;20585;-83
2023/10/31 03:58:40;;;;;;;0.35;0.22;;;;;;;20.16;100.00;99608.13;10271945;28;20523;-83
2023/10/31 04:03:43;;;;;;;1.20;0.70;;;;;;;20.08;100.00;99620.63;10279865;28;20131;-83
2023/10/31 04:08:46;;;;;;;0.77;0.60;;;;;;;20.55;100.00;99615.50;10270459;28;20043;-84
2023/10/31 04:13:47;;;;;;;0.65;0.40;;;;;;;20.30;100.00;99620.75;10282760;28;20042;-84
2023/10/31 04:18:49;;;;;;;1.23;0.80;;;;;;;20.60;100.00;99629.25;10276132;28;20486;-84
2023/10/31 04:23:51;;;;;;;0.80;0.68;;;;;;;19.74;100.00;99637.41;10285531;28;20050;-83
2023/10/31 04:28:52;;;;;;;1.50;0.98;;;;;;;20.05;100.00;99652.09;10266067;28;20054;-82
2023/10/31 04:33:54;;;;;;;3.58;1.88;;;;;;;19.75;100.00;99655.63;10266943;28;20050;-83
2023/10/31 04:38:55;;;;;;;1.55;1.05;;;;;;;19.47;100.00;99660.88;10260527;28;20502;-83
2023/10/31 04:43:57;;;;;;;0.52;0.40;;;;;;;19.56;100.00;99670.19;10285836;28;20042;-83
2023/10/31 04:48:59;;;;;;;0.75;0.38;;;;;;;19.76;100.00;99677.41;10281192;28;20053;-84
2023/10/31 04:54:00;;;;;;;0.82;0.80;;;;;;;20.28;100.00;99686.19;10279877;28;20046;-84
2023/10/31 04:59:02;;;;;;;1.10;0.52;;;;;;;20.27;100.00;99694.06;10277649;28;20046;-84
2023/10/31 05:04:04;;;;;;;0.10;0.10;;;;;;;20.82;100.00;99693.94;10286541;28;20057;-86
2023/10/31 05:09:14;;;;;;;0.10;0.10;;;;;;;19.66;100.00;99711.66;10280860;28;20039;-83
2023/10/31 05:14:16;;;;;;;2.95;0.55;;;;;;;19.25;100.00;99724.19;10286003;28;20051;-83
2023/10/31 05:19:18;;;;;;;0.63;0.50;;;;;;;19.53;100.00;99732.97;10266331;28;20057;-83
2023/10/31 05:24:19;;;;;;;0.28;0.28;;;;;;;19.17;100.00;99736.63;10284577;28;20050;-83
2023/10/31 05:29:21;;;;;;;0.25;0.25;;;;;;;19.15;100.00;99743.63;10281361;28;20517;-82
2023/10/31 05:34:22;;;;;;;0.43;0.05;;;;;;;19.59;100.00;99749.31;10278063;28;20054;-83
2023/10/31 05:39:24;;;;;;;0.00;0.00;;;;;;;19.69;100.00;99744.66;10284083;28;20050;-83
2023/10/31 05:44:25;;;;;;;0.00;0.00;;;;;;;19.44;100.00;99762.84;10284127;28;20066;-83
2023/10/31 05:49:27;;;;;;;0.17;0.13;;;;;;;19.62;100.00;99764.88;10283181;28;20043;-83
2023/10/31 05:54:28;;;;;;;0.10;0.03;;;;;;;19.40;100.00;99771.66;10278676;28;20043;-83
2023/10/31 05:59:30;;;;;;;0.00;0.00;;;;;;;19.37;100.00;99776.97;10280178;28;20462;-83
2023/10/31 06:04:32;;;;;;;0.03;0.03;;;;;;;19.86;100.00;99772.09;10280445;28;20039;-83
2023/10/31 06:09:33;;;;;;;0.00;0.00;;;;;;;19.79;100.00;99787.03;10257727;28;20054;-83
2023/10/31 06:14:35;;;;;;;0.20;0.20;;;;;;;19.90;100.00;99795.47;10282655;28;20789;-83
2023/10/31 06:19:37;;;;;;;0.60;0.30;;;;;;;19.93;100.00;99805.81;10291338;28;20042;-84
2023/10/31 06:24:40;;;;;;;0.43;0.32;;;;;;;20.64;100.00;99801.84;10286903;28;20055;-84
2023/10/31 06:29:41;;;;;;;0.50;0.32;;;;;;;20.58;100.00;99803.78;10284128;28;20039;-85
2023/10/31 06:35:03;;;;;;;1.65;0.57;;;;;;;20.03;100.00;99806.38;10269813;28;20629;-84
2023/10/31 06:40:06;;;;;;;0.15;0.15;;;;;;;20.42;100.00;99818.25;10269122;28;20042;-84
2023/10/31 06:45:08;;;;;;;0.17;0.17;;;;;;;20.53;100.00;99824.00;10288254;28;20043;-84
2023/10/31 06:50:09;;;;;;;0.32;0.30;;;;;;;20.49;100.00;99832.84;10287871;28;20122;-83
2023/10/31 06:55:11;;;;;;;2.97;0.50;;;;;;;20.68;100.00;99845.31;10266614;28;20050;-84
2023/10/31 07:00:13;;;;;;;0.50;0.30;;;;;;;19.98;100.00;99844.88;10283831;28;20102;-84
2023/10/31 07:05:15;;;;;;;0.25;0.25;;;;;;;19.69;100.00;99850.97;10280357;28;20063;-83
2023/10/31 07:10:17;;;;;;;1.10;0.30;;;;;;;19.66;100.00;99852.75;10288509;28;20050;-85
2023/10/31 07:15:18;;;;;;;0.98;0.47;;;;;;;20.88;100.00;99856.03;10269408;28;20509;-85
2023/10/31 07:20:20;;;;;;;0.03;0.03;;;;;;;20.34;100.00;99862.13;10257877;28;20047;-85
2023/10/31 07:25:21;;;;;;;0.40;0.30;;;;;;;19.95;100.00;99871.97;10287641;28;20047;-85
2023/10/31 07:30:23;;;;;;;1.10;0.55;;;;;;;20.13;100.00;99875.81;10266432;28;20703;-84
2023/10/31 07:35:24;;;;;;;0.60;0.10;;;;;;;20.60;100.00;99869.13;10272274;28;20054;-84
2023/10/31 07:40:26;;;;;;;0.73;0.22;;;;;;;20.35;100.00;99874.31;10283074;28;20070;-83
2023/10/31 07:45:28;;;;;;;1.42;0.73;;;;;;;20.41;100.00;99879.34;10274775;28;20057;-83
2023/10/31 07:50:29;;;;;;;1.42;0.80;;;;;;;21.21;100.00;99875.88;10270753;28;20055;-83
2023/10/31 07:55:31;;;;;;;0.00;0.00;;;;;;;20.47;100.00;99879.13;10283340;28;20058;-84
2023/10/31 08:00:34;;;;;;;4.05;0.70;;;;;;;20.38;100.00;99889.88;10288067;28;20046;-84
2023/10/31 08:05:36;;;;;;;0.95;0.45;;;;;;;20.61;100.00;99892.63;10280696;28;20058;-85
2023/10/31 08:10:37;;;;;;;0.32;0.30;;;;;;;21.28;100.00;99892.22;10284975;28;20047;-83
2023/10/31 08:15:39;;;;;;;0.85;0.63;;;;;;;20.91;100.00;99895.19;10285884;28;20059;-84
2023/10/31 08:20:40;;;;;;;0.80;0.30;;;;;;;21.85;100.00;99904.22;10278155;28;20043;-84
2023/10/31 08:25:42;;;;;;;0.08;0.08;;;;;;;21.00;100.00;99906.25;10289010;28;20042;-84
2023/10/31 08:30:44;;;;;;;1.27;0.80;;;;;;;20.98;100.00;99915.94;10285851;28;20133;-83
2023/10/31 08:35:47;;;;;;;1.77;0.70;;;;;;;21.89;100.00;99915.44;10281593;28;20046;-83
2023/10/31 08:40:49;;;;;;;0.70;0.63;;;;;;;21.00;100.00;99929.84;10283447;28;20066;-84
2023/10/31 08:45:50;;;;;;;0.22;0.22;;;;;;;21.57;100.00;99935.78;10286388;28;20128;-83
2023/10/31 08:50:52;;;;;;;0.20;0.17;;;;;;;21.76;100.00;99942.97;10287897;28;20046;-84
2023/10/31 08:55:53;;;;;;;0.25;0.20;;;;;;;21.14;100.00;99945.94;10288708;28;20461;-83
2023/10/31 09:00:55;;;;;;;0.50;0.43;;;;;;;21.67;100.00;99952.03;10279880;28;20047;-84
2023/10/31 09:05:57;;;;;;;0.30;0.30;;;;;;;20.95;100.00;99952.69;10287025;28;20071;-83
2023/10/31 09:10:58;;;;;;;1.85;0.93;;;;;;;21.56;100.00;99960.25;10263209;28;20101;-83
2023/10/31 09:16:00;;;;;;;1.27;0.75;;;;;;;22.61;100.00;99972.19;10272793;28;20043;-82
2023/10/31 09:21:02;;;;;;;0.55;0.40;;;;;;;22.29;100.00;99981.28;10261005;28;20054;-83
2023/10/31 09:26:03;;;;;;;1.15;0.28;;;;;;;21.22;100.00;99983.22;10295611;28;20054;-83
2023/10/31 09:31:05;;;;;;;2.25;0.73;;;;;;;21.47;100.00;99998.13;10299006;28;20433;-83
2023/10/31 09:36:07;;;;;;;2.25;0.60;;;;;;;21.91;100.00;99999.28;10295282;28;20109;-82
2023/10/31 09:41:09;;;;;;;0.80;0.45;;;;;;;21.92;100.00;100004.47;10284808;28;20506;-82
2023/10/31 09:46:11;;;;;;;0.98;0.52;;;;;;;22.29;100.00;100012.75;10281863;28;20108;-83
2023/10/31 09:51:13;;;;;;;0.57;0.47;;;;;;;22.78;100.00;100012.69;10284826;28;20117;-83
2023/10/31 09:56:16;;;;;;;0.50;0.32;;;;;;;21.83;100.00;100016.13;10288670;28;20058;-83
2023/10/31 10:01:17;;;;;;;0.75;0.57;;;;;;;22.33;100.00;100019.59;10283387;28;20127;-83
2023/10/31 10:06:21;;;;;;;1.00;0.70;;;;;;;21.93;100.00;100036.81;10292115;28;20559;-83
2023/10/31 10:11:22;;;;;;;0.85;0.60;;;;;;;21.64;100.00;100046.50;10291902;28;20039;-83
2023/10/31 10:16:29;;;;;;;0.20;0.15;;;;;;;22.40;100.00;100057.00;10299049;28;20046;-83
2023/10/31 10:21:47;;;;;;;1.10;0.60;;;;;;;22.30;100.00;100059.94;10275764;28;20043;-83
2023/10/31 10:26:49;;;;;;;0.20;0.05;;;;;;;22.95;100.00;100064.56;10282566;28;20049;-83
2023/10/31 10:31:50;;;;;;;0.57;0.43;;;;;;;22.36;100.00;100077.22;10290989;28;20043;-82
2023/10/31 10:36:53;;;;;;;1.33;0.88;;;;;;;23.89;100.00;100068.63;10290599;28;20062;-82
2023/10/31 10:41:59;;;;;;;0.20;0.17;;;;;;;22.31;100.00;100081.75;10274734;28;20403;-83
2023/10/31 10:47:04;;;;;;;0.30;0.20;;;;;;;23.71;100.00;100080.81;10284738;28;20047;-84
2023/10/31 10:52:28;;;;;;;1.60;0.95;;;;;;;22.98;100.00;100085.44;10290834;28;20043;-84
2023/10/31 10:57:51;;;;;;;0.63;0.43;;;;;;;23.21;100.00;100081.06;10281288;28;20057;-83
2023/10/31 11:02:53;;;;;;;1.58;0.52;;;;;;;22.16;100.00;100091.91;10289162;28;20042;-84
2023/10/31 11:07:57;;;;;;;0.32;0.20;;;;;;;23.64;100.00;100089.88;10289157;28;20083;-84
2023/10/31 11:13:00;;;;;;;0.85;0.77;;;;;;;23.53;100.00;100092.06;10282213;28;20084;-84
2023/10/31 11:18:02;;;;;;;0.17;0.10;;;;;;;23.05;100.00;100102.66;10268078;28;20421;-84
2023/10/31 11:23:06;;;;;;;0.60;0.57;;;;;;;22.88;100.00;100112.97;10281337;28;20062;-83
2023/10/31 11:28:13;;;;;;;0.68;0.68;;;;;;;23.44;100.00;100115.19;10289185;28;20063;-86
2023/10/31 11:33:18;;;;;;;0.25;0.25;;;;;;;23.35;100.00;100110.28;10286942;28;20045;-83
2023/10/31 11:38:32;;;;;;;0.80;0.50;;;;;;;23.20;100.00;100110.88;10289320;28;20418;-86
2023/10/31 11:43:39;;;;;;;0.85;0.55;;;;;;;23.36;100.00;100117.25;10290376;28;20122;-85
2023/10/31 11:48:52;;;;;;;0.60;0.50;;;;;;;22.98;100.00;100127.47;10273655;28;20050;-84
2023/10/31 11:53:53;;;;;;;1.30;0.50;;;;;;;24.92;100.00;100133.47;10290936;28;20034;-84
2023/10/31 11:58:56;;;;;;;0.70;0.28;;;;;;;23.16;100.00;100135.56;10288631;28;20438;-84
2023/10/31 12:03:58;;;;;;;1.00;0.57;;;;;;;23.24;100.00;100138.78;10282816;28;20136;-85
2023/10/31 12:09:01;;;;;;;2.13;0.70;;;;;;;22.99;100.00;100144.94;10284732;28;20047;-84
2023/10/31 12:14:06;;;;;;;0.85;0.45;;;;;;;22.49;100.00;100146.75;10282816;28;20070;-85
2023/10/31 12:19:07;;;;;;;1.08;1.00;;;;;;;22.21;100.00;100144.22;10285571;28;20043;-84
2023/10/31 12:24:14;;;;;;;0.40;0.40;;;;;;;21.71;100.00;100147.63;10288024;28;20055;-85
2023/10/31 12:29:20;;;;;;;0.80;0.60;;;;;;;21.29;100.00;100150.66;10270895;28;20498;-84
2023/10/31 12:34:23;;;;;;;3.90;1.33;;;;;;;21.45;100.00;100162.38;10271680;28;20121;-84
2023/10/31 12:39:27;;;;;;;3.28;2.28;;;;;;;22.25;100.00;100163.31;10284435;28;20046;-83
2023/10/31 12:44:29;;;;;;;1.85;1.38;;;;;;;22.24;100.00;100158.97;10283492;28;20051;-84
2023/10/31 12:49:31;;;;;;;2.05;1.10;;;;;;;21.29;100.00;100166.38;10287030;28;20049;-84
2023/10/31 12:54:37;;;;;;;2.45;1.00;;;;;;;22.62;100.00;100156.81;10286902;28;20054;-84
2023/10/31 12:59:38;;;;;;;1.45;1.10;;;;;;;22.12;100.00;100153.25;10277891;28;20118;-84
2023/10/31 13:04:41;;;;;;;0.28;0.28;;;;;;;21.93;100.00;100157.44;10286544;28;20074;-84
2023/10/31 13:09:42;;;;;;;1.58;1.27;;;;;;;23.00;100.00;100151.91;10285786;28;20093;-84
2023/10/31 13:14:45;;;;;;;0.90;0.28;;;;;;;22.71;100.00;100161.72;10284598;28;20130;-84
2023/10/31 13:19:46;;;;;;;0.60;0.32;;;;;;;22.34;100.00;100168.25;10287331;28;20042;-85
2023/10/31 13:24:48;;;;;;;1.23;1.13;;;;;;;23.28;100.00;100182.41;10286135;28;20077;-83
2023/10/31 13:29:50;;;;;;;1.17;0.93;;;;;;;22.14;100.00;100182.94;10279021;28;20041;-84
2023/10/31 13:34:52;;;;;;;0.65;0.38;;;;;;;22.62;100.00;100190.94;10269893;28;20125;-84
2023/10/31 13:39:54;;;;;;;1.50;0.95;;;;;;;22.10;100.00;100190.94;10287279;28;20043;-82
2023/10/31 13:45:45;;;;;;;;;;;;;;;22.71;100.00;100203.75;10287322;28;20498;-84
2023/10/31 13:50:47;;;;;;;1.10;0.68;;;;;;;22.18;100.00;100205.50;10285506;28;19930;-83
2023/10/31 13:55:48;;;;;;;0.93;0.47;;;;;;;21.81;100.00;100217.22;10285382;28;20101;-84
2023/10/31 14:00:50;;;;;;;1.05;0.52;;;;;;;22.96;100.00;100216.00;10281207;28;20075;-83
2023/10/31 14:05:51;;;;;;;1.08;0.75;;;;;;;22.46;100.00;100225.59;10285116;28;20057;-84
2023/10/31 14:10:56;;;;;;;1.15;0.98;;;;;;;23.36;100.00;100226.81;10284637;28;20445;-84
2023/10/31 14:15:57;;;;;;;0.68;0.65;;;;;;;22.92;100.00;100232.75;10285295;28;20057;-83
2023/10/31 14:20:59;;;;;;;2.38;1.60;;;;;;;22.27;100.00;100240.22;10284305;28;20091;-84
2023/10/31 14:26:00;;;;;;;0.55;0.17;;;;;;;22.18;100.00;100237.00;10285058;28;20113;-84
2023/10/31 14:31:03;;;;;;;0.65;0.30;;;;;;;22.58;100.00;100244.47;10284765;28;20516;-83
2023/10/31 14:36:05;;;;;;;1.92;1.05;;;;;;;23.23;100.00;100236.91;10285908;28;20051;-83
2023/10/31 14:41:07;;;;;;;0.90;0.60;;;;;;;23.66;100.00;100251.03;10291060;28;20062;-84
2023/10/31 14:46:09;;;;;;;2.03;0.73;;;;;;;22.66;100.00;100248.53;10293244;28;20057;-83
2023/10/31 14:51:10;;;;;;;0.95;0.40;;;;;;;22.74;100.00;100265.78;10288656;28;20040;-84
2023/10/31 14:56:13;;;;;;;0.10;0.00;;;;;;;22.59;100.00;100256.69;10287922;28;20058;-84
2023/10/31 15:01:16;;;;;;;0.32;0.32;;;;;;;22.61;100.00;100262.72;10290875;28;20054;-84
2023/10/31 15:06:20;;;;;;;0.00;0.00;;;;;;;22.57;100.00;100269.00;10302482;28;20058;-84
2023/10/31 15:11:22;;;;;;;0.25;0.20;;;;;;;23.02;100.00;100272.66;10290224;28;20062;-84
2023/10/31 15:16:24;;;;;;;0.08;0.08;;;;;;;23.44;100.00;100270.25;10290983;28;20054;-83
2023/10/31 15:21:26;;;;;;;0.13;0.13;;;;;;;23.42;100.00;100279.97;10284433;28;20050;-83
2023/10/31 15:26:28;;;;;;;0.22;0.13;;;;;;;22.42;100.00;100281.72;10274193;28;20245;-82
2023/10/31 15:31:30;;;;;;;0.80;0.40;;;;;;;21.53;100.00;100280.94;10292926;28;20406;-84
2023/10/31 15:36:31;;;;;;;2.65;0.88;;;;;;;22.39;100.00;100276.56;10285540;28;20050;-83
2023/10/31 15:41:33;;;;;;;3.58;0.85;;;;;;;22.80;100.00;100287.44;10288390;28;20074;-84
2023/10/31 15:46:36;;;;;;;0.30;0.30;;;;;;;22.11;100.00;100279.22;10286403;28;20499;-84
2023/10/31 15:51:39;;;;;;;0.30;0.22;;;;;;;21.68;100.00;100289.28;10288559;28;20046;-83
2023/10/31 15:56:41;;;;;;;0.35;0.35;;;;;;;21.55;100.00;100283.50;10282901;28;20050;-83
2023/10/31 16:01:43;;;;;;;0.22;0.17;;;;;;;21.11;100.00;100289.13;10271233;28;20050;-84
2023/10/31 16:06:45;;;;;;;0.68;0.25;;;;;;;20.95;100.00;100290.47;10288263;28;20050;-83
2023/10/31 16:11:46;;;;;;;0.70;0.35;;;;;;;21.59;100.00;100294.78;10287657;28;20042;-83
2023/10/31 16:16:49;;;;;;;0.90;0.60;;;;;;;21.97;100.00;100300.63;10286857;28;20054;-83
2023/10/31 16:21:51;;;;;;;1.85;0.95;;;;;;;21.71;100.00;100311.03;10285925;28;20043;-83
2023/10/31 16:26:52;;;;;;;0.50;0.50;;;;;;;21.43;100.00;100316.16;10270565;28;20146;-83
2023/10/31 16:31:54;;;;;;;1.00;0.55;;;;;;;21.69;100.00;100317.22;10287646;28;20035;-85
2023/10/31 16:36:56;;;;;;;0.50;0.17;;;;;;;21.63;100.00;100320.03;10277275;28;20498;-83
2023/10/31 16:41:57;;;;;;;0.10;0.10;;;;;;;21.35;100.00;100323.38;10291179;28;20039;-83
2023/10/31 16:46:59;;;;;;;0.85;0.30;;;;;;;21.56;100.00;100325.41;10288108;28;20050;-82
2023/10/31 16:52:02;;;;;;;0.43;0.32;;;;;;;21.87;100.00;100342.03;10287440;28;20043;-82
2023/10/31 16:57:04;;;;;;;0.20;0.20;;;;;;;21.79;100.00;100350.09;10277974;28;20047;-83
2023/10/31 17:02:05;;;;;;;0.35;0.35;;;;;;;21.98;100.00;100353.03;10274172;28;20042;-83
2023/10/31 17:07:07;;;;;;;1.98;1.02;;;;;;;21.70;100.00;100355.66;10282520;28;20057;-82
2023/10/31 17:12:09;;;;;;;0.00;0.00;;;;;;;21.74;100.00;100354.63;10283641;28;20046;-82
2023/10/31 17:17:10;;;;;;;0.10;0.10;;;;;;;22.05;100.00;100356.34;10285015;28;20070;-82
2023/10/31 17:22:12;;;;;;;0.40;0.20;;;;;;;21.68;100.00;100367.94;10279693;28;20525;-83
2023/10/31 17:27:13;;;;;;;0.10;0.10;;;;;;;21.95;100.00;100374.13;10286257;28;20077;-83
2023/10/31 17:32:15;;;;;;;0.22;0.20;;;;;;;22.54;100.00;100379.34;10269286;28;20050;-85
2023/10/31 17:37:24;;;;;;;0.30;0.15;;;;;;;22.42;100.00;100385.84;10284151;28;20049;-83
2023/10/31 17:42:25;;;;;;;0.20;0.20;;;;;;;22.32;100.00;100396.63;10284888;28;20039;-83
2023/10/31 17:47:28;;;;;;;0.75;0.25;;;;;;;21.60;100.00;100401.38;10268527;28;20361;-83
2023/10/31 17:52:30;;;;;;;0.10;0.10;;;;;;;21.70;100.00;100392.34;10278951;28;20070;-84
2023/10/31 17:57:32;;;;;;;0.10;0.10;;;;;;;20.95;100.00;100403.91;10284310;28;20086;-84
2023/10/31 18:02:33;;;;;;;0.00;0.00;;;;;;;21.04;100.00;100397.56;10291900;28;20042;-83
2023/10/31 18:07:35;;;;;;;0.73;0.47;;;;;;;21.38;100.00;100407.16;10284595;28;20042;-84
2023/10/31 18:12:37;;;;;;;0.70;0.60;;;;;;;21.06;100.00;100401.00;10288660;28;20045;-83
2023/10/31 18:17:38;;;;;;;0.30;0.30;;;;;;;20.77;100.00;100406.06;10291608;28;20055;-83
2023/10/31 18:22:40;;;;;;;0.22;0.22;;;;;;;21.14;100.00;100409.53;10293235;28;20039;-83
2023/10/31 18:27:42;;;;;;;0.22;0.20;;;;;;;20.58;100.00;100410.88;10292822;28;20054;-84
2023/10/31 18:32:44;;;;;;;0.45;0.30;;;;;;;20.51;100.00;100413.66;10288457;28;20035;-83
2023/10/31 18:37:45;;;;;;;0.20;0.20;;;;;;;20.57;100.00;100408.28;10290118;28;20046;-83
2023/10/31 18:42:47;;;;;;;0.22;0.22;;;;;;;20.26;100.00;100409.84;10300628;28;20042;-83
2023/10/31 18:47:49;;;;;;;0.52;0.38;;;;;;;20.26;100.00;100408.97;10284673;28;20540;-84
2023/10/31 18:52:50;;;;;;;0.15;0.08;;;;;;;20.80;100.00;100418.25;10293251;28;20042;-83
2023/10/31 18:57:52;;;;;;;0.20;0.20;;;;;;;21.16;100.00;100415.59;10293367;28;20077;-85
2023/10/31 19:02:53;;;;;;;0.90;0.55;;;;;;;21.09;100.00;100416.66;10293194;28;20081;-83
2023/10/31 19:07:55;;;;;;;0.80;0.45;;;;;;;20.66;100.00;100409.84;10291875;28;20043;-83
2023/10/31 19:12:57;;;;;;;0.10;0.10;;;;;;;21.11;100.00;100399.13;10292357;28;20616;-83
2023/10/31 19:17:58;;;;;;;0.47;0.30;;;;;;;21.66;100.00;100391.56;10284357;28;20054;-83
2023/10/31 19:23:00;;;;;;;0.75;0.32;;;;;;;21.62;100.00;100384.69;10288584;28;20053;-82
2023/10/31 19:28:04;;;;;;;1.30;0.60;;;;;;;22.98;100.00;100379.63;10287321;28;20054;-83
2023/10/31 19:33:05;;;;;;;0.98;0.60;;;;;;;22.15;100.00;100389.25;10274185;28;20066;-83
2023/10/31 19:38:07;;;;;;;2.47;1.15;;;;;;;22.30;100.00;100389.69;10287800;28;20039;-83
2023/10/31 19:43:09;;;;;;;0.22;0.13;;;;;;;20.83;100.00;100407.69;10294969;28;20074;-83
2023/10/31 19:48:11;;;;;;;0.65;0.47;;;;;;;21.35;100.00;100397.63;10289225;28;20047;-83
2023/10/31 19:53:12;;;;;;;0.88;0.82;;;;;;;21.08;100.00;100399.22;10284980;28;20098;-83
2023/10/31 19:58:14;;;;;;;1.55;0.85;;;;;;;21.94;100.00;100379.41;10287790;28;20046;-83
2023/10/31 20:03:17;;;;;;;2.15;0.73;;;;;;;21.62;100.00;100378.59;10285238;28;20054;-83
2023/10/31 20:08:19;;;;;;;1.23;0.70;;;;;;;22.12;100.00;100394.59;10283655;28;20046;-84
2023/10/31 20:13:23;;;;;;;2.20;0.57;;;;;;;21.98;100.00;100391.53;10289216;28;20039;-83
2023/10/31 20:18:25;;;;;;;1.20;0.93;;;;;;;21.06;100.00;100385.28;10284217;28;20050;-82
2023/10/31 20:23:26;;;;;;;1.70;0.98;;;;;;;20.84;100.00;100391.06;10286071;28;20034;-82
2023/10/31 20:28:28;;;;;;;1.65;0.70;;;;;;;20.44;100.00;100386.75;10285639;28;20046;-83
2023/10/31 20:33:29;;;;;;;2.45;0.77;;;;;;;20.36;100.00;100383.50;10286652;28;20039;-83
2023/10/31 20:38:31;;;;;;;3.63;0.73;;;;;;;20.33;100.00;100386.16;10286738;28;20465;-83
2023/10/31 20:43:33;;;;;;;0.55;0.35;;;;;;;20.14;100.00;100383.97;10281374;28;20137;-82
2023/10/31 20:48:34;;;;;;;0.85;0.55;;;;;;;21.28;100.00;100389.97;10279319;28;20050;-82
2023/10/31 20:53:37;;;;;;;0.60;0.52;;;;;;;20.43;100.00;100392.91;10285912;28;20039;-82
2023/10/31 20:58:39;;;;;;;0.95;0.52;;;;;;;21.52;100.00;100378.81;10284967;28;20871;-83
2023/10/31 21:03:40;;;;;;;0.60;0.60;;;;;;;20.68;100.00;100387.97;10285991;28;20054;-83
2023/10/31 21:08:42;;;;;;;1.00;0.57;;;;;;;20.09;100.00;100388.44;10266211;28;20049;-83
2023/10/31 21:13:44;;;;;;;0.98;0.85;;;;;;;19.80;100.00;100382.03;10287479;28;20039;-84
2023/10/31 21:18:46;;;;;;;0.88;0.73;;;;;;;19.32;100.00;100381.22;10276859;28;20530;-83
2023/10/31 21:23:48;;;;;;;1.27;0.85;;;;;;;20.18;100.00;100385.63;10288569;28;20042;-82
2023/10/31 21:28:49;;;;;;;3.47;0.90;;;;;;;19.84;100.00;100386.38;10277463;28;20047;-83
2023/10/31 21:33:51;;;;;;;3.75;0.77;;;;;;;21.37;100.00;100387.09;10284875;28;20053;-83
2023/10/31 21:38:54;;;;;;;0.45;0.30;;;;;;;20.77;100.00;100390.34;10285216;28;20118;-83
2023/10/31 21:43:55;;;;;;;0.88;0.38;;;;;;;20.45;100.00;100393.72;10285131;28;20039;-83
2023/10/31 21:48:57;;;;;;;0.75;0.68;;;;;;;20.47;100.00;100391.94;10298470;28;20070;-83
2023/10/31 21:53:58;;;;;;;0.82;0.50;;;;;;;20.61;100.00;100389.00;10290539;28;20047;-83
2023/10/31 21:59:00;;;;;;;2.15;0.77;;;;;;;20.93;100.00;100379.50;10282979;28;20051;-83
2023/10/31 22:04:03;;;;;;;0.28;0.13;;;;;;;21.77;100.00;100379.91;10294068;28;20070;-83
2023/10/31 22:09:06;;;;;;;0.65;0.45;;;;;;;20.69;100.00;100373.09;10271848;28;20098;-83
2023/10/31 22:14:08;;;;;;;1.65;1.38;;;;;;;21.28;100.00;100374.25;10275437;28;20043;-84
2023/10/31 22:19:09;;;;;;;0.73;0.45;;;;;;;21.09;100.00;100366.88;10292524;28;20530;-83
2023/10/31 22:24:12;;;;;;;0.50;0.50;;;;;;;21.41;100.00;100349.41;10288732;28;20046;-82
2023/10/31 22:29:14;;;;;;;2.42;0.60;;;;;;;20.99;100.00;100362.78;10292149;28;20595;-83
2023/10/31 22:34:15;;;;;;;0.50;0.35;;;;;;;21.13;100.00;100365.91;10269934;28;20043;-83
2023/10/31 22:39:17;;;;;;;0.47;0.47;;;;;;;20.43;100.00;100364.13;10289797;28;20576;-84
2023/10/31 22:44:18;;;;;;;0.32;0.32;;;;;;;20.51;100.00;100359.59;10289230;28;20042;-83
2023/10/31 22:49:22;;;;;;;0.30;0.30;;;;;;;20.89;100.00;100357.78;10291048;28;20046;-85
2023/10/31 22:54:24;;;;;;;0.85;0.70;;;;;;;20.68;100.00;100366.13;10286512;28;20047;-83
2023/10/31 22:59:25;;;;;;;0.35;0.22;;;;;;;20.61;100.00;100366.28;10286123;28;20469;-84